Time;durP1;ratioP1;P1;durP2;ratioP2;P2;SDS_P1;SDS_P2;PMS_P1;PMS_P2;Temp;Humidity;BMP_temperature;BMP_pressure;BME280_temperature;BME280_humidity;BME280_pressure;Samples;Min_cycle;Max_cycle;Signal;HPM_P1;HPM_P2
2023/11/14 00:01:54;;;;;;;15.63;1.73;;;;;;;;;;5068958;28;20422;-84
2023/11/14 00:04:20;;;;;;;17.93;2.33;;;;;;;;;;5053475;28;20436;-84
2023/11/14 00:06:46;;;;;;;18.07;3.50;;;;;;;;;;5053104;28;20409;-83
2023/11/14 00:09:13;;;;;;;25.93;3.43;;;;;;;;;;5053412;28;20413;-85
2023/11/14 00:11:39;;;;;;;16.90;2.60;;;;;;;;;;5053184;28;20478;-84
2023/11/14 00:14:04;;;;;;;16.40;3.40;;;;;;;;;;5035414;28;20426;-82
2023/11/14 00:16:31;;;;;;;20.13;3.37;;;;;;;;;;5019340;28;20200;-84
2023/11/14 00:18:57;;;;;;;13.23;2.60;;;;;;;;;;5022910;28;20434;-83
2023/11/14 00:21:23;;;;;;;19.60;3.37;;;;;;;;;;5032804;28;20747;-83
2023/11/14 00:23:50;;;;;;;11.63;2.00;;;;;;;;;;5033324;28;20483;-84
2023/11/14 00:26:16;;;;;;;11.60;1.70;;;;;;;;;;5033194;28;20833;-83
2023/11/14 00:28:42;;;;;;;20.73;3.50;;;;;;;;;;5033080;28;20416;-85
2023/11/14 00:31:07;;;;;;;13.97;1.97;;;;;;;;;;5033014;28;20486;-84
2023/11/14 00:33:34;;;;;;;13.23;2.50;;;;;;;;;;5033207;28;20447;-85
2023/11/14 00:36:00;;;;;;;16.97;5.13;;;;;;;;;;5031494;28;20429;-83
2023/11/14 00:38:26;;;;;;;19.00;2.97;;;;;;;;;;5033128;28;20418;-83
2023/11/14 00:40:52;;;;;;;11.83;2.93;;;;;;;;;;5025025;28;20940;-84
2023/11/14 00:43:19;;;;;;;23.80;3.17;;;;;;;;;;5019934;28;20456;-83
2023/11/14 00:45:45;;;;;;;24.90;4.00;;;;;;;;;;5013263;28;20475;-82
2023/11/14 00:48:11;;;;;;;19.50;3.13;;;;;;;;;;5025882;28;20498;-84
2023/11/14 00:50:37;;;;;;;12.63;2.50;;;;;;;;;;5032585;28;20554;-82
2023/11/14 00:53:03;;;;;;;15.07;2.90;;;;;;;;;;5032926;28;20422;-85
2023/11/14 00:55:29;;;;;;;13.87;2.70;;;;;;;;;;5032716;28;20465;-83
2023/11/14 00:57:55;;;;;;;14.03;2.83;;;;;;;;;;4992174;28;20183;-83
2023/11/14 01:00:21;;;;;;;16.40;2.63;;;;;;;;;;5048223;28;20183;-83
2023/11/14 01:02:53;;;;;;;17.60;3.57;;;;;;;;;;5033119;28;20456;-83
2023/11/14 01:05:19;;;;;;;21.93;3.30;;;;;;;;;;5031659;28;20420;-85
2023/11/14 01:07:45;;;;;;;12.57;2.90;;;;;;;;;;5040445;28;20949;-83
2023/11/14 01:10:11;;;;;;;16.80;3.33;;;;;;;;;;5041313;28;20171;-83
2023/11/14 01:12:37;;;;;;;20.43;3.50;;;;;;;;;;5045050;28;20182;-82
2023/11/14 01:15:04;;;;;;;12.80;1.90;;;;;;;;;;5055099;28;20415;-82
2023/11/14 01:17:29;;;;;;;13.60;3.73;;;;;;;;;;5048851;28;20421;-83
2023/11/14 01:19:56;;;;;;;11.13;2.33;;;;;;;;;;5046316;28;20429;-84
2023/11/14 01:22:22;;;;;;;13.77;3.47;;;;;;;;;;5044196;28;20956;-84
2023/11/14 01:24:48;;;;;;;13.20;2.40;;;;;;;;;;5039051;28;20837;-84
2023/11/14 01:27:15;;;;;;;14.83;2.63;;;;;;;;;;5042596;28;20446;-83
2023/11/14 01:29:42;;;;;;;19.30;2.77;;;;;;;;;;5042506;28;20417;-81
2023/11/14 01:32:08;;;;;;;17.63;3.10;;;;;;;;;;5042844;28;20845;-83
2023/11/14 01:34:35;;;;;;;14.73;3.43;;;;;;;;;;5041019;28;20497;-82
2023/11/14 01:37:01;;;;;;;17.77;3.07;;;;;;;;;;5042101;28;20888;-83
2023/11/14 01:39:26;;;;;;;22.53;2.97;;;;;;;;;;5042682;28;20525;-84
2023/11/14 01:41:53;;;;;;;16.97;3.23;;;;;;;;;;5040527;28;20411;-83
2023/11/14 01:44:19;;;;;;;18.33;3.50;;;;;;;;;;5043812;28;20535;-85
2023/11/14 01:46:45;;;;;;;17.63;3.40;;;;;;;;;;5040450;28;20480;-84
2023/11/14 01:49:11;;;;;;;25.27;3.80;;;;;;;;;;5041800;28;20922;-83
2023/11/14 01:51:37;;;;;;;16.77;2.67;;;;;;;;;;5040770;28;20474;-82
2023/11/14 01:54:03;;;;;;;17.70;2.90;;;;;;;;;;5041826;28;20441;-83
2023/11/14 01:56:29;;;;;;;23.97;3.30;;;;;;;;;;5042862;28;20417;-83
2023/11/14 01:58:55;;;;;;;12.00;2.77;;;;;;;;;;5040997;28;20501;-84
2023/11/14 02:01:22;;;;;;;19.43;2.87;;;;;;;;;;5045356;28;20763;-84
2023/11/14 02:03:48;;;;;;;20.00;3.17;;;;;;;;;;5043385;28;20443;-86
2023/11/14 02:06:14;;;;;;;20.47;3.50;;;;;;;;;;5045391;28;20437;-84
2023/11/14 02:08:40;;;;;;;15.03;2.73;;;;;;;;;;5045595;28;20408;-84
2023/11/14 02:11:06;;;;;;;12.67;2.80;;;;;;;;;;5045713;28;20466;-85
2023/11/14 02:13:33;;;;;;;23.33;4.10;;;;;;;;;;5041761;28;20484;-84
2023/11/14 02:15:59;;;;;;;15.87;3.10;;;;;;;;;;5044533;28;20513;-86
2023/11/14 02:18:25;;;;;;;13.47;2.20;;;;;;;;;;5043575;28;20521;-85
2023/11/14 02:20:51;;;;;;;18.10;3.23;;;;;;;;;;5044358;28;20435;-89
2023/11/14 02:23:17;;;;;;;12.20;2.40;;;;;;;;;;5044237;28;20404;-86
2023/11/14 02:25:46;;;;;;;14.03;2.63;;;;;;;;;;5044851;28;20413;-86
2023/11/14 02:28:13;;;;;;;20.83;2.90;;;;;;;;;;5045964;28;20404;-83
2023/11/14 02:30:40;;;;;;;16.67;3.17;;;;;;;;;;5044183;28;20513;-85
2023/11/14 02:33:06;;;;;;;11.90;2.30;;;;;;;;;;5035376;28;20431;-84
2023/11/14 02:35:32;;;;;;;13.63;2.30;;;;;;;;;;5020313;28;20433;-85
2023/11/14 02:37:58;;;;;;;18.80;2.93;;;;;;;;;;5025650;28;20431;-86
2023/11/14 02:40:24;;;;;;;11.87;1.93;;;;;;;;;;5035280;28;20414;-84
2023/11/14 02:42:51;;;;;;;17.30;3.90;;;;;;;;;;5035236;28;20184;-84
2023/11/14 02:45:17;;;;;;;21.17;2.47;;;;;;;;;;5029682;28;20892;-86
2023/11/14 02:47:42;;;;;;;17.80;1.70;;;;;;;;;;5015406;28;20459;-86
2023/11/14 02:50:27;;;;;;;14.27;2.20;;;;;;;;;;5030552;28;20480;-85
2023/11/14 02:53:03;;;;;;;15.37;2.10;;;;;;;;;;5015271;28;20270;-85
2023/11/14 02:55:29;;;;;;;12.97;1.90;;;;;;;;;;5022305;28;20418;-87
2023/11/14 02:57:55;;;;;;;15.70;2.57;;;;;;;;;;4995748;28;21185;-85
2023/11/14 03:00:21;;;;;;;16.53;2.50;;;;;;;;;;5030283;28;20421;-84
2023/11/14 03:02:48;;;;;;;16.00;2.20;;;;;;;;;;5034782;28;20447;-85
2023/11/14 03:05:15;;;;;;;14.10;2.07;;;;;;;;;;5034406;28;20422;-86
2023/11/14 03:07:41;;;;;;;13.83;1.80;;;;;;;;;;5034711;28;20482;-86
2023/11/14 03:10:07;;;;;;;18.30;2.40;;;;;;;;;;5034124;28;20423;-84
2023/11/14 03:12:33;;;;;;;17.77;2.63;;;;;;;;;;5034066;28;20569;-89
2023/11/14 03:14:59;;;;;;;10.53;1.50;;;;;;;;;;5034730;28;20433;-88
2023/11/14 03:17:25;;;;;;;13.13;1.50;;;;;;;;;;5034757;28;20539;-87
2023/11/14 03:19:51;;;;;;;10.27;1.80;;;;;;;;;;5034518;28;20181;-88
2023/11/14 03:22:17;;;;;;;11.27;1.53;;;;;;;;;;5034291;28;20451;-87
2023/11/14 03:24:43;;;;;;;18.30;1.70;;;;;;;;;;5034516;28;20411;-87
2023/11/14 03:27:09;;;;;;;16.93;4.60;;;;;;;;;;5034392;28;20177;-88
2023/11/14 03:29:35;;;;;;;11.60;3.00;;;;;;;;;;5034361;28;20476;-87
2023/11/14 03:32:01;;;;;;;11.10;2.97;;;;;;;;;;5032927;28;20714;-86
2023/11/14 03:34:26;;;;;;;9.37;1.50;;;;;;;;;;5034335;28;20448;-88
2023/11/14 03:36:53;;;;;;;11.10;1.97;;;;;;;;;;5032724;28;20941;-88
2023/11/14 03:39:19;;;;;;;8.10;1.63;;;;;;;;;;5034203;28;20177;-85
2023/11/14 03:41:45;;;;;;;10.47;2.07;;;;;;;;;;5034138;28;20430;-85
2023/11/14 03:44:20;;;;;;;12.70;2.07;;;;;;;;;;5034037;28;20408;-86
2023/11/14 03:46:46;;;;;;;12.17;1.33;;;;;;;;;;5034085;28;20818;-85
2023/11/14 03:49:12;;;;;;;8.77;1.63;;;;;;;;;;5034009;28;20415;-86
2023/11/14 03:51:38;;;;;;;15.73;2.47;;;;;;;;;;5033405;28;20529;-87
2023/11/14 03:54:04;;;;;;;13.40;2.67;;;;;;;;;;5033905;28;20438;-87
2023/11/14 03:56:30;;;;;;;15.67;2.27;;;;;;;;;;5033841;28;20419;-85
2023/11/14 03:58:56;;;;;;;11.20;2.00;;;;;;;;;;5033810;28;20758;-85
2023/11/14 04:01:22;;;;;;;9.87;2.57;;;;;;;;;;5033786;28;20209;-86
2023/11/14 04:03:48;;;;;;;13.03;1.50;;;;;;;;;;5033757;28;20415;-87
2023/11/14 04:06:13;;;;;;;12.00;2.07;;;;;;;;;;5033152;28;20173;-85
2023/11/14 04:08:39;;;;;;;10.37;1.70;;;;;;;;;;5033539;28;20918;-86
2023/11/14 04:11:06;;;;;;;13.87;2.10;;;;;;;;;;5033519;28;20239;-87
2023/11/14 04:13:33;;;;;;;17.30;2.23;;;;;;;;;;5033474;28;20403;-86
2023/11/14 04:15:59;;;;;;;7.37;1.50;;;;;;;;;;5033457;28;20932;-86
2023/11/14 04:18:25;;;;;;;11.37;2.00;;;;;;;;;;5025261;28;20455;-84
2023/11/14 04:20:51;;;;;;;10.73;1.20;;;;;;;;;;5028451;28;20435;-85
2023/11/14 04:23:17;;;;;;;15.37;3.00;;;;;;;;;;5013429;28;20957;-80
2023/11/14 04:25:43;;;;;;;10.70;2.17;;;;;;;;;;5015654;28;20192;-87
2023/11/14 04:28:09;;;;;;;7.93;1.20;;;;;;;;;;5033183;28;20420;-88
2023/11/14 04:30:35;;;;;;;11.03;1.10;;;;;;;;;;5033210;28;20484;-83
2023/11/14 04:33:01;;;;;;;10.13;1.73;;;;;;;;;;5033265;28;20474;-85
2023/11/14 04:35:27;;;;;;;12.83;2.00;;;;;;;;;;5014854;28;20518;-86
2023/11/14 04:37:56;;;;;;;16.00;1.97;;;;;;;;;;5013465;28;20417;-86
2023/11/14 04:40:22;;;;;;;11.73;1.80;;;;;;;;;;5013501;28;20414;-86
2023/11/14 04:42:48;;;;;;;15.40;2.03;;;;;;;;;;5013508;28;20411;-85
2023/11/14 04:45:14;;;;;;;10.67;2.10;;;;;;;;;;5013497;28;20749;-84
2023/11/14 04:47:40;;;;;;;13.33;1.53;;;;;;;;;;5013419;28;20187;-87
2023/11/14 04:50:06;;;;;;;15.03;2.27;;;;;;;;;;5028283;28;20431;-86
2023/11/14 04:52:32;;;;;;;10.83;1.67;;;;;;;;;;5013267;28;20498;-85
2023/11/14 04:54:58;;;;;;;14.00;2.57;;;;;;;;;;5013365;28;20822;-86
2023/11/14 04:57:24;;;;;;;7.57;2.57;;;;;;;;;;5013480;28;20525;-86
2023/11/14 04:59:50;;;;;;;14.53;2.60;;;;;;;;;;5013305;28;20508;-88
2023/11/14 05:02:17;;;;;;;10.37;1.60;;;;;;;;;;5013231;28;20424;-86
2023/11/14 05:04:42;;;;;;;7.60;2.40;;;;;;;;;;5028534;28;20422;-84
2023/11/14 05:07:09;;;;;;;14.90;1.67;;;;;;;;;;5012737;28;20433;-85
2023/11/14 05:09:35;;;;;;;13.73;1.37;;;;;;;;;;5013310;28;20470;-85
2023/11/14 05:12:01;;;;;;;11.57;2.83;;;;;;;;;;5013252;28;20874;-86
2023/11/14 05:14:27;;;;;;;12.63;2.10;;;;;;;;;;5013209;28;20402;-87
2023/11/14 05:16:56;;;;;;;14.30;1.83;;;;;;;;;;5013109;28;20421;-88
2023/11/14 05:19:23;;;;;;;17.90;1.90;;;;;;;;;;5013160;28;20440;-88
2023/11/14 05:21:50;;;;;;;10.80;2.80;;;;;;;;;;5012803;28;20506;-88
2023/11/14 05:24:16;;;;;;;12.27;1.77;;;;;;;;;;5013193;28;20411;-88
2023/11/14 05:26:41;;;;;;;13.97;2.67;;;;;;;;;;5013178;28;20420;-87
2023/11/14 05:29:10;;;;;;;14.93;1.70;;;;;;;;;;5013090;28;20502;-89
2023/11/14 05:31:37;;;;;;;15.83;3.37;;;;;;;;;;5028128;28;20496;-86
2023/11/14 05:34:03;;;;;;;10.50;1.40;;;;;;;;;;5029404;28;20407;-89
2023/11/14 05:36:29;;;;;;;12.40;2.10;;;;;;;;;;5032094;28;20423;-88
2023/11/14 05:38:55;;;;;;;12.20;1.97;;;;;;;;;;5016986;28;20894;-88
2023/11/14 05:41:21;;;;;;;13.47;2.47;;;;;;;;;;5032797;28;20181;-91
2023/11/14 05:43:47;;;;;;;13.37;1.03;;;;;;;;;;5017816;28;20562;-93
2023/11/14 05:46:13;;;;;;;12.03;1.70;;;;;;;;;;5017788;28;20421;-94
2023/11/14 05:48:39;;;;;;;14.07;1.83;;;;;;;;;;5017814;28;20404;-93
2023/11/14 05:51:05;;;;;;;13.20;2.70;;;;;;;;;;5023873;28;20453;-90
2023/11/14 05:53:31;;;;;;;11.30;2.90;;;;;;;;;;5032853;28;20518;-92
2023/11/14 05:55:57;;;;;;;14.00;1.87;;;;;;;;;;5019341;28;20457;-92
2023/11/14 05:58:23;;;;;;;13.03;2.10;;;;;;;;;;5033060;28;21355;-92
2023/11/14 06:00:49;;;;;;;14.73;2.30;;;;;;;;;;5019709;28;20503;-91
2023/11/14 06:03:19;;;;;;;13.40;2.70;;;;;;;;;;5016906;28;20428;-89
2023/11/14 06:05:45;;;;;;;15.20;2.77;;;;;;;;;;5016666;28;20502;-90
2023/11/14 06:08:11;;;;;;;14.00;1.97;;;;;;;;;;5043177;28;20947;-88
2023/11/14 06:10:37;;;;;;;13.40;1.57;;;;;;;;;;5045886;28;20551;-89
2023/11/14 06:13:03;;;;;;;14.63;2.30;;;;;;;;;;5043326;28;20583;-89
2023/11/14 06:15:29;;;;;;;14.80;2.63;;;;;;;;;;5035124;28;20462;-88
2023/11/14 06:17:55;;;;;;;9.23;1.07;;;;;;;;;;5048941;28;20401;-83
2023/11/14 06:20:22;;;;;;;13.90;2.33;;;;;;;;;;5070425;28;20423;-86
2023/11/14 06:22:49;;;;;;;11.67;2.03;;;;;;;;;;5060964;28;20181;-87
2023/11/14 06:25:15;;;;;;;21.17;3.43;;;;;;;;;;5055355;28;20425;-85
2023/11/14 06:27:44;;;;;;;13.77;1.77;;;;;;;;;;5055769;28;20413;-85
2023/11/14 06:30:14;;;;;;;9.63;2.07;;;;;;;;;;5054143;28;20411;-86
2023/11/14 06:32:40;;;;;;;8.03;2.43;;;;;;;;;;5055309;28;20505;-87
2023/11/14 06:35:06;;;;;;;10.20;1.90;;;;;;;;;;5055052;28;20773;-85
2023/11/14 06:37:32;;;;;;;13.77;2.10;;;;;;;;;;5055267;28;20417;-85
2023/11/14 06:39:58;;;;;;;9.67;2.63;;;;;;;;;;5055303;28;20612;-87
2023/11/14 06:42:24;;;;;;;10.57;2.10;;;;;;;;;;5053972;28;20180;-87
2023/11/14 06:44:50;;;;;;;10.83;2.10;;;;;;;;;;5055009;28;20418;-85
2023/11/14 06:47:16;;;;;;;16.77;2.83;;;;;;;;;;5055106;28;20442;-85
2023/11/14 06:49:42;;;;;;;13.33;3.37;;;;;;;;;;5054762;28;20411;-86
2023/11/14 06:52:10;;;;;;;11.70;2.07;;;;;;;;;;5054957;28;20472;-86
2023/11/14 06:54:36;;;;;;;13.27;2.40;;;;;;;;;;5054944;28;20442;-86
2023/11/14 06:57:02;;;;;;;13.63;2.70;;;;;;;;;;5055019;28;20500;-88
2023/11/14 06:59:30;;;;;;;15.57;2.17;;;;;;;;;;5002865;28;20661;-86
2023/11/14 07:01:56;;;;;;;12.50;2.30;;;;;;;;;;5033758;28;20466;-86
2023/11/14 07:04:22;;;;;;;12.93;2.10;;;;;;;;;;5035062;28;20516;-86
2023/11/14 07:06:48;;;;;;;11.20;2.47;;;;;;;;;;5034609;28;20988;-87
2023/11/14 07:09:19;;;;;;;12.07;1.33;;;;;;;;;;5034863;28;20167;-87
2023/11/14 07:11:44;;;;;;;13.73;3.50;;;;;;;;;;5034912;28;20542;-87
2023/11/14 07:14:10;;;;;;;12.50;2.90;;;;;;;;;;5034810;28;20886;-86
2023/11/14 07:16:36;;;;;;;16.83;2.50;;;;;;;;;;5034682;28;20414;-88
2023/11/14 07:19:02;;;;;;;17.90;2.37;;;;;;;;;;5034869;28;20417;-88
2023/11/14 07:21:32;;;;;;;15.60;2.60;;;;;;;;;;5034541;28;20419;-86
2023/11/14 07:23:58;;;;;;;10.40;4.60;;;;;;;;;;5034716;28;20180;-84
2023/11/14 07:26:24;;;;;;;12.47;2.20;;;;;;;;;;5034435;28;20952;-85
2023/11/14 07:28:50;;;;;;;15.03;2.80;;;;;;;;;;5034425;28;20438;-84
2023/11/14 07:31:17;;;;;;;14.40;2.10;;;;;;;;;;5033624;28;20680;-83
2023/11/14 07:33:43;;;;;;;16.90;2.43;;;;;;;;;;5033352;28;20425;-83
2023/11/14 07:36:09;;;;;;;14.13;2.40;;;;;;;;;;5032961;28;20501;-84
2023/11/14 07:38:35;;;;;;;14.13;3.10;;;;;;;;;;5033282;28;20491;-82
2023/11/14 07:41:01;;;;;;;11.23;2.80;;;;;;;;;;5033329;28;20407;-83
2023/11/14 07:43:29;;;;;;;14.60;1.47;;;;;;;;;;5033197;28;20410;-85
2023/11/14 07:45:55;;;;;;;15.23;3.03;;;;;;;;;;5033151;28;20197;-86
2023/11/14 07:48:20;;;;;;;14.23;3.70;;;;;;;;;;5032829;28;20482;-84
2023/11/14 07:50:54;;;;;;;8.40;1.10;;;;;;;;;;5031422;28;20206;-83
2023/11/14 07:53:20;;;;;;;10.33;3.10;;;;;;;;;;5032987;28;20461;-86
2023/11/14 07:55:46;;;;;;;8.40;1.57;;;;;;;;;;5032980;28;20406;-87
2023/11/14 07:58:12;;;;;;;17.17;1.23;;;;;;;;;;5032788;28;20413;-85
2023/11/14 08:00:38;;;;;;;9.87;1.50;;;;;;;;;;5032960;28;20423;-86
2023/11/14 08:03:04;;;;;;;11.70;2.70;;;;;;;;;;4992158;28;20470;-83
2023/11/14 08:05:32;;;;;;;15.67;3.23;;;;;;;;;;5032472;28;20450;-84
2023/11/14 08:07:58;;;;;;;17.50;3.10;;;;;;;;;;5035463;28;20650;-84
2023/11/14 08:10:24;;;;;;;10.93;2.28;;;;;;;;;;5051528;28;20415;-84
2023/11/14 08:12:50;;;;;;;15.60;2.23;;;;;;;;;;5052763;28;20171;-83
2023/11/14 08:15:16;;;;;;;14.03;1.57;;;;;;;;;;5052738;28;20526;-85
2023/11/14 08:17:42;;;;;;;10.77;1.43;;;;;;;;;;5052666;28;20460;-82
2023/11/14 08:20:10;;;;;;;12.20;1.50;;;;;;;;;;5052224;28;20511;-84
2023/11/14 08:22:36;;;;;;;11.90;1.33;;;;;;;;;;5052572;28;20523;-83
2023/11/14 08:25:02;;;;;;;14.43;1.53;;;;;;;;;;5052560;28;20401;-86
2023/11/14 08:27:31;;;;;;;14.63;1.87;;;;;;;;;;5052367;28;20421;-83
2023/11/14 08:29:58;;;;;;;17.17;3.03;;;;;;;;;;5049699;28;1003971;-81
2023/11/14 08:32:24;;;;;;;13.53;1.57;;;;;;;;;;5053166;28;20473;-85
2023/11/14 08:34:50;;;;;;;10.60;2.07;;;;;;;;;;5052770;28;20798;-84
2023/11/14 08:37:16;;;;;;;11.57;2.33;;;;;;;;;;5068600;28;20429;-83
2023/11/14 08:39:42;;;;;;;11.37;1.77;;;;;;;;;;5053032;28;20184;-84
2023/11/14 08:42:11;;;;;;;15.70;1.23;;;;;;;;;;5068589;28;20694;-84
2023/11/14 08:44:38;;;;;;;13.73;2.17;;;;;;;;;;5053084;28;20175;-84
2023/11/14 08:47:04;;;;;;;10.63;0.93;;;;;;;;;;5052989;28;20769;-85
2023/11/14 08:49:30;;;;;;;16.60;1.90;;;;;;;;;;5052584;28;20469;-81
2023/11/14 08:51:56;;;;;;;8.00;1.37;;;;;;;;;;5052881;28;20469;-84
2023/11/14 08:54:22;;;;;;;10.57;1.10;;;;;;;;;;5052964;28;20407;-85
2023/11/14 08:56:48;;;;;;;10.33;1.30;;;;;;;;;;5053053;28;20186;-87
2023/11/14 08:59:17;;;;;;;11.17;2.33;;;;;;;;;;5052929;28;20523;-86
2023/11/14 09:01:44;;;;;;;6.53;1.57;;;;;;;;;;5068402;28;20433;-86
2023/11/14 09:04:10;;;;;;;11.37;1.93;;;;;;;;;;5052417;28;21030;-84
2023/11/14 09:06:39;;;;;;;9.50;0.60;;;;;;;;;;5068375;28;20461;-85
2023/11/14 09:09:05;;;;;;;12.73;1.43;;;;;;;;;;5069306;28;20450;-83
2023/11/14 09:11:31;;;;;;;5.67;1.07;;;;;;;;;;5056749;28;20528;-83
2023/11/14 09:13:58;;;;;;;9.93;1.23;;;;;;;;;;5056880;28;20442;-86
2023/11/14 09:16:25;;;;;;;8.20;1.37;;;;;;;;;;5072381;28;20406;-87
2023/11/14 09:18:51;;;;;;;12.77;1.97;;;;;;;;;;5056696;28;20477;-86
2023/11/14 09:21:17;;;;;;;10.57;2.07;;;;;;;;;;5056538;28;20501;-84
2023/11/14 09:23:43;;;;;;;12.00;2.13;;;;;;;;;;5056864;28;20453;-83
2023/11/14 09:26:09;;;;;;;9.43;1.30;;;;;;;;;;5056781;28;20436;-87
2023/11/14 09:28:36;;;;;;;9.97;1.30;;;;;;;;;;5057277;28;20488;-88
2023/11/14 09:31:02;;;;;;;9.20;1.53;;;;;;;;;;5056995;28;20464;-90
2023/11/14 09:33:28;;;;;;;7.07;1.07;;;;;;;;;;5057092;28;20474;-89
2023/11/14 09:35:55;;;;;;;14.30;2.07;;;;;;;;;;5072507;28;20412;-88
2023/11/14 09:38:22;;;;;;;10.70;0.80;;;;;;;;;;5057014;28;20423;-88
2023/11/14 09:40:48;;;;;;;11.83;1.37;;;;;;;;;;5072473;28;20785;-89
2023/11/14 09:43:14;;;;;;;12.57;1.70;;;;;;;;;;5057098;28;20411;-86
2023/11/14 09:45:43;;;;;;;9.73;0.87;;;;;;;;;;5057166;28;20906;-90
2023/11/14 09:48:12;;;;;;;9.97;1.13;;;;;;;;;;5056875;28;20411;-88
2023/11/14 09:50:41;;;;;;;14.00;1.23;;;;;;;;;;5056864;28;20762;-87
2023/11/14 09:53:07;;;;;;;7.60;1.13;;;;;;;;;;5056960;28;20426;-92
2023/11/14 09:55:33;;;;;;;5.40;0.90;;;;;;;;;;5056683;28;20403;-87
2023/11/14 09:58:01;;;;;;;6.27;1.00;;;;;;;;;;5072376;28;20426;-88
2023/11/14 10:00:29;;;;;;;6.63;0.63;;;;;;;;;;5056561;28;20417;-88
2023/11/14 10:02:56;;;;;;;9.30;1.27;;;;;;;;;;5056635;28;20434;-90
2023/11/14 10:05:22;;;;;;;8.40;1.17;;;;;;;;;;5056430;28;20818;-88
2023/11/14 10:07:49;;;;;;;7.07;0.80;;;;;;;;;;5043881;28;20439;-82
2023/11/14 10:10:16;;;;;;;8.93;0.80;;;;;;;;;;5045970;28;20623;-88
2023/11/14 10:12:42;;;;;;;5.40;0.40;;;;;;;;;;5057131;28;21034;-87
2023/11/14 10:15:08;;;;;;;10.63;1.10;;;;;;;;;;5056448;28;20449;-86
2023/11/14 10:17:45;;;;;;;14.73;1.60;;;;;;;;;;5056041;28;20966;-87
2023/11/14 10:20:12;;;;;;;10.37;1.83;;;;;;;;;;5055149;28;20446;-84
2023/11/14 10:22:49;;;;;;;9.43;1.30;;;;;;;;;;5056154;28;20509;-91
2023/11/14 10:25:25;;;;;;;4.57;1.00;;;;;;;;;;5056053;28;20884;-87
2023/11/14 10:28:04;;;;;;;10.27;1.10;;;;;;;;;;5056170;28;20415;-87
2023/11/14 10:30:44;;;;;;;6.17;0.90;;;;;;;;;;5055787;28;20459;-89
2023/11/14 10:33:11;;;;;;;12.10;1.20;;;;;;;;;;5056065;28;20409;-89
2023/11/14 10:35:36;;;;;;;7.20;1.03;;;;;;;;;;5071282;28;20446;-88
2023/11/14 10:38:25;;;;;;;11.50;1.80;;;;;;;;;;5055989;28;20424;-86
2023/11/14 10:40:51;;;;;;;7.80;1.27;;;;;;;;;;5071233;28;20936;-88
2023/11/14 10:43:29;;;;;;;12.87;2.60;;;;;;;;;;5071290;28;20478;-84
2023/11/14 10:45:55;;;;;;;11.00;1.83;;;;;;;;;;5056028;28;20408;-90
2023/11/14 10:48:22;;;;;;;6.67;1.50;;;;;;;;;;5056396;28;20452;-89
2023/11/14 10:50:48;;;;;;;10.10;2.20;;;;;;;;;;5055555;28;20460;-89
2023/11/14 10:53:15;;;;;;;11.20;1.73;;;;;;;;;;5055583;28;20450;-90
2023/11/14 10:55:41;;;;;;;12.00;1.70;;;;;;;;;;5055526;28;20408;-87
2023/11/14 10:58:09;;;;;;;10.90;1.20;;;;;;;;;;5055106;28;20426;-87
2023/11/14 11:00:37;;;;;;;6.97;0.80;;;;;;;;;;5055379;28;20771;-85
2023/11/14 11:03:04;;;;;;;9.70;1.40;;;;;;;;;;5070704;28;20426;-84
2023/11/14 11:05:31;;;;;;;12.70;1.90;;;;;;;;;;5055414;28;20412;-82
2023/11/14 11:08:02;;;;;;;10.57;1.30;;;;;;;;;;5055642;28;21001;-86
2023/11/14 11:10:30;;;;;;;4.80;1.20;;;;;;;;;;5055139;28;20446;-87
2023/11/14 11:12:57;;;;;;;7.30;1.57;;;;;;;;;;5055611;28;20423;-85
2023/11/14 11:15:23;;;;;;;14.63;1.63;;;;;;;;;;5070982;28;20424;-86
2023/11/14 11:17:49;;;;;;;8.20;1.60;;;;;;;;;;5070776;28;20908;-87
2023/11/14 11:20:22;;;;;;;8.70;1.43;;;;;;;;;;5070812;28;20419;-91
2023/11/14 11:23:08;;;;;;;6.30;0.97;;;;;;;;;;5055360;28;20768;-87
2023/11/14 11:25:34;;;;;;;8.80;1.13;;;;;;;;;;5055582;28;20416;-87
2023/11/14 11:28:20;;;;;;;8.10;1.67;;;;;;;;;;5070987;28;20835;-83
2023/11/14 11:31:07;;;;;;;8.90;1.13;;;;;;;;;;5054865;28;20951;-87
2023/11/14 11:33:33;;;;;;;11.30;1.53;;;;;;;;;;5054868;28;20483;-91
2023/11/14 11:36:17;;;;;;;11.10;1.53;;;;;;;;;;5055233;28;20422;-85
2023/11/14 11:38:52;;;;;;;10.23;1.10;;;;;;;;;;5054964;28;20533;-90
2023/11/14 11:41:18;;;;;;;18.07;2.27;;;;;;;;;;5054821;28;20414;-85
2023/11/14 11:43:45;;;;;;;14.93;1.60;;;;;;;;;;5054511;28;20421;-89
2023/11/14 11:46:44;;;;;;;14.23;1.60;;;;;;;;;;5070462;28;20930;-88
2023/11/14 11:49:12;;;;;;;8.33;1.03;;;;;;;;;;5053391;28;20420;-87
2023/11/14 11:51:43;;;;;;;11.93;1.90;;;;;;;;;;5054709;28;20480;-90
2023/11/14 11:54:27;;;;;;;13.63;1.77;;;;;;;;;;5055268;28;20910;-87
2023/11/14 11:57:06;;;;;;;14.33;2.13;;;;;;;;;;5054617;28;20417;-90
2023/11/14 11:59:44;;;;;;;9.53;2.47;;;;;;;;;;5054536;28;20452;-88
2023/11/14 12:02:11;;;;;;;13.80;1.80;;;;;;;;;;5054659;28;20416;-90
2023/11/14 12:04:37;;;;;;;10.30;0.90;;;;;;;;;;5054523;28;20411;-89
2023/11/14 12:07:03;;;;;;;16.83;3.73;;;;;;;;;;5054657;28;20422;-88
2023/11/14 12:09:31;;;;;;;13.83;3.33;;;;;;;;;;5003592;28;20431;-90
2023/11/14 12:12:03;;;;;;;9.00;1.23;;;;;;;;;;5034684;28;20479;-88
2023/11/14 12:14:30;;;;;;;10.33;1.27;;;;;;;;;;5033954;28;20426;-87
2023/11/14 12:17:06;;;;;;;10.87;1.50;;;;;;;;;;5034520;28;20541;-87
2023/11/14 12:19:32;;;;;;;9.63;1.23;;;;;;;;;;5034520;28;20764;-89
2023/11/14 12:21:58;;;;;;;6.90;1.40;;;;;;;;;;5034292;28;20407;-87
2023/11/14 12:24:24;;;;;;;5.93;0.80;;;;;;;;;;5042400;28;20434;-87
2023/11/14 12:26:50;;;;;;;8.67;2.10;;;;;;;;;;5055096;28;20414;-88
2023/11/14 12:29:17;;;;;;;13.20;1.70;;;;;;;;;;5054322;28;20436;-89
2023/11/14 12:31:46;;;;;;;8.87;2.10;;;;;;;;;;5053701;28;20487;-88
2023/11/14 12:34:13;;;;;;;11.60;1.57;;;;;;;;;;5069067;28;20421;-88
2023/11/14 12:36:39;;;;;;;6.40;0.70;;;;;;;;;;5054475;28;20426;-90
2023/11/14 12:39:12;;;;;;;10.00;1.93;;;;;;;;;;5054223;28;20420;-84
2023/11/14 12:41:43;;;;;;;7.97;1.40;;;;;;;;;;5053867;28;20221;-90
2023/11/14 12:44:10;;;;;;;12.97;2.20;;;;;;;;;;5054003;28;20401;-88
2023/11/14 12:46:36;;;;;;;8.60;0.90;;;;;;;;;;5054296;28;20406;-88
2023/11/14 12:49:13;;;;;;;8.60;0.93;;;;;;;;;;5069274;28;20404;-89
2023/11/14 12:51:53;;;;;;;10.50;1.53;;;;;;;;;;5053528;28;20509;-89
2023/11/14 12:54:20;;;;;;;9.23;0.90;;;;;;;;;;5053560;28;20418;-88
2023/11/14 12:56:49;;;;;;;10.07;1.13;;;;;;;;;;5053583;28;20425;-87
2023/11/14 12:59:15;;;;;;;10.73;1.43;;;;;;;;;;5069121;28;20427;-89
2023/11/14 13:01:42;;;;;;;8.10;1.90;;;;;;;;;;5053162;28;20491;-85
2023/11/14 13:04:09;;;;;;;11.20;0.87;;;;;;;;;;5052442;28;20888;-89
2023/11/14 13:06:36;;;;;;;8.40;0.87;;;;;;;;;;5053116;28;20464;-88
2023/11/14 13:09:03;;;;;;;11.20;1.60;;;;;;;;;;5013062;28;20824;-89
2023/11/14 13:11:29;;;;;;;8.53;1.23;;;;;;;;;;5031940;28;20972;-87
2023/11/14 13:13:56;;;;;;;9.13;0.93;;;;;;;;;;5033237;28;20535;-88
2023/11/14 13:16:22;;;;;;;9.63;1.80;;;;;;;;;;5033507;28;20425;-86
2023/11/14 13:18:48;;;;;;;6.70;0.73;;;;;;;;;;5032284;28;20428;-90
2023/11/14 13:21:15;;;;;;;7.87;1.53;;;;;;;;;;5033277;28;20421;-87
2023/11/14 13:23:41;;;;;;;8.67;1.70;;;;;;;;;;5033198;28;20421;-88
2023/11/14 13:26:07;;;;;;;4.30;1.63;;;;;;;;;;5048753;28;20407;-88
2023/11/14 13:28:34;;;;;;;10.90;1.60;;;;;;;;;;5033579;28;20422;-87
2023/11/14 13:31:00;;;;;;;8.90;1.13;;;;;;;;;;5032985;28;20473;-86
2023/11/14 13:33:31;;;;;;;9.97;0.90;;;;;;;;;;5033103;28;20435;-86
2023/11/14 13:35:57;;;;;;;9.73;1.63;;;;;;;;;;5034067;28;20403;-90
2023/11/14 13:38:26;;;;;;;8.33;0.77;;;;;;;;;;5032902;28;20449;-89
2023/11/14 13:40:53;;;;;;;5.70;1.37;;;;;;;;;;5033447;28;20430;-88
2023/11/14 13:43:19;;;;;;;11.17;1.20;;;;;;;;;;5032682;28;20916;-88
2023/11/14 13:45:45;;;;;;;14.17;1.90;;;;;;;;;;5034317;28;20444;-89
2023/11/14 13:48:11;;;;;;;11.23;1.60;;;;;;;;;;5034274;28;20451;-90
2023/11/14 13:50:37;;;;;;;10.10;1.57;;;;;;;;;;5033625;28;20473;-90
2023/11/14 13:53:04;;;;;;;9.90;1.00;;;;;;;;;;5034164;28;20418;-89
2023/11/14 13:55:30;;;;;;;9.43;1.40;;;;;;;;;;5035580;28;20208;-88
2023/11/14 13:57:56;;;;;;;12.80;1.90;;;;;;;;;;5037689;28;20415;-89
2023/11/14 14:00:24;;;;;;;6.80;1.33;;;;;;;;;;5036980;28;20428;-87
2023/11/14 14:02:50;;;;;;;11.83;1.40;;;;;;;;;;5036790;28;20420;-87
2023/11/14 14:05:17;;;;;;;14.47;1.80;;;;;;;;;;5035969;28;20416;-85
2023/11/14 14:07:45;;;;;;;9.33;0.67;;;;;;;;;;5036698;28;20200;-90
2023/11/14 14:10:14;;;;;;;12.50;1.73;;;;;;;;;;5037304;28;20504;-88
2023/11/14 14:12:42;;;;;;;9.13;1.03;;;;;;;;;;5036924;28;20559;-88
2023/11/14 14:15:09;;;;;;;9.80;0.87;;;;;;;;;;5036853;28;20415;-82
2023/11/14 14:17:34;;;;;;;9.13;1.13;;;;;;;;;;5036650;28;20486;-85
2023/11/14 14:20:02;;;;;;;6.10;1.03;;;;;;;;;;5035876;28;20416;-85
2023/11/14 14:22:28;;;;;;;5.20;0.53;;;;;;;;;;5036440;28;20790;-85
2023/11/14 14:24:54;;;;;;;10.00;1.53;;;;;;;;;;5034894;28;20475;-89
2023/11/14 14:27:21;;;;;;;5.03;0.93;;;;;;;;;;5036164;28;20419;-86
2023/11/14 14:29:47;;;;;;;5.20;0.67;;;;;;;;;;5035895;28;20422;-88
2023/11/14 14:32:14;;;;;;;5.47;1.27;;;;;;;;;;5036170;28;20482;-85
2023/11/14 14:34:39;;;;;;;5.80;1.13;;;;;;;;;;5034401;28;20835;-88